Time;durP1;ratioP1;P1;durP2;ratioP2;P2;SDS_P1;SDS_P2;PMS_P1;PMS_P2;Temp;Humidity;BMP_temperature;BMP_pressure;BME280_temperature;BME280_humidity;BME280_pressure;Samples;Min_cycle;Max_cycle;Signal;HPM_P1;HPM_P2
2022/01/15 00:02:14;;;;;;;3.55;1.10;;;;;;;;;;5094669;27;20047;-71
2022/01/15 00:04:40;;;;;;;3.22;1.05;;;;;;;;;;5099140;27;20111;-71
2022/01/15 00:07:06;;;;;;;2.15;0.90;;;;;;;;;;5098046;27;20047;-71
2022/01/15 00:09:32;;;;;;;3.38;1.00;;;;;;;;;;5099904;27;20669;-71
2022/01/15 00:11:58;;;;;;;2.60;0.95;;;;;;;;;;5079894;27;20139;-71
2022/01/15 00:14:29;;;;;;;4.15;1.20;;;;;;;;;;5099580;27;20046;-71
2022/01/15 00:16:57;;;;;;;3.85;1.38;;;;;;;;;;5098294;27;20495;-70
2022/01/15 00:19:43;;;;;;;3.95;1.30;;;;;;;;;;5082299;27;20127;-71
2022/01/15 00:22:14;;;;;;;3.45;1.20;;;;;;;;;;5096694;27;21247;-71
2022/01/15 00:24:40;;;;;;;3.65;1.40;;;;;;;;;;5100135;27;20043;-71
2022/01/15 00:27:07;;;;;;;3.75;1.30;;;;;;;;;;5099338;27;20043;-71
2022/01/15 00:29:33;;;;;;;3.88;1.42;;;;;;;;;;5098499;27;20047;-71
2022/01/15 00:32:00;;;;;;;4.75;1.50;;;;;;;;;;5096308;27;20072;-71
2022/01/15 00:34:26;;;;;;;3.75;1.30;;;;;;;;;;5083268;27;20059;-71
2022/01/15 00:36:52;;;;;;;3.50;1.40;;;;;;;;;;5099457;27;20078;-71
2022/01/15 00:39:18;;;;;;;3.35;1.30;;;;;;;;;;5099813;27;20043;-71
2022/01/15 00:41:44;;;;;;;4.10;1.27;;;;;;;;;;5096166;27;20091;-71
2022/01/15 00:44:10;;;;;;;4.30;1.50;;;;;;;;;;5098956;27;20130;-71
2022/01/15 00:46:36;;;;;;;3.65;1.23;;;;;;;;;;5099376;27;20047;-71
2022/01/15 00:49:03;;;;;;;4.38;1.58;;;;;;;;;;5097617;27;20134;-71
2022/01/15 00:51:29;;;;;;;4.65;1.60;;;;;;;;;;5129884;27;20152;-71
2022/01/15 00:53:55;;;;;;;3.35;1.30;;;;;;;;;;5097549;27;20891;-71
2022/01/15 00:56:21;;;;;;;3.42;1.45;;;;;;;;;;5117186;27;20065;-71
2022/01/15 00:58:47;;;;;;;4.13;1.42;;;;;;;;;;5115376;27;20043;-71
2022/01/15 01:01:13;;;;;;;4.00;1.58;;;;;;;;;;5095604;27;20582;-71
2022/01/15 01:03:39;;;;;;;4.72;1.40;;;;;;;;;;5096882;27;20039;-71
2022/01/15 01:06:05;;;;;;;5.47;1.70;;;;;;;;;;5081127;27;20046;-70
2022/01/15 01:08:31;;;;;;;4.60;1.63;;;;;;;;;;5097824;27;20928;-71
2022/01/15 01:10:59;;;;;;;4.45;1.50;;;;;;;;;;5095545;27;20059;-71
2022/01/15 01:24:12;;;;;;;3.97;1.30;;;;;;;;;;5098622;27;20060;-71
2022/01/15 01:26:55;;;;;;;2.85;1.10;;;;;;;;;;5070573;27;20039;-64
2022/01/15 01:32:40;;;;;;;3.88;1.55;;;;;;;;;;5091555;27;20043;-64
2022/01/15 01:34:52;;;;;;;4.18;1.33;;;;;;;;;;5087098;28;20135;-64
2022/01/15 01:37:26;;;;;;;3.58;1.33;;;;;;;;;;5091399;27;20039;-64
2022/01/15 01:40:06;;;;;;;2.55;1.08;;;;;;;;;;5108252;27;20784;-64
2022/01/15 01:42:41;;;;;;;3.85;1.27;;;;;;;;;;5106353;27;20043;-63
2022/01/15 01:45:13;;;;;;;3.47;1.50;;;;;;;;;;5107706;27;20043;-64
2022/01/15 01:47:41;;;;;;;3.88;1.40;;;;;;;;;;5105724;27;20070;-64
2022/01/15 01:50:24;;;;;;;3.90;1.48;;;;;;;;;;5108350;27;20365;-64
2022/01/15 01:52:51;;;;;;;2.92;1.38;;;;;;;;;;5107111;27;20122;-64
2022/01/15 01:55:19;;;;;;;3.85;1.50;;;;;;;;;;5107724;27;20066;-64
2022/01/15 01:57:46;;;;;;;3.60;1.30;;;;;;;;;;5089102;27;20031;-64
2022/01/15 02:00:14;;;;;;;2.80;1.27;;;;;;;;;;5107166;27;20166;-64
2022/01/15 02:02:40;;;;;;;2.90;1.30;;;;;;;;;;5105855;27;20066;-64
2022/01/15 02:05:06;;;;;;;4.13;1.40;;;;;;;;;;5107724;27;20058;-64
2022/01/15 02:07:32;;;;;;;3.70;1.40;;;;;;;;;;5106190;27;20275;-64
2022/01/15 02:09:59;;;;;;;3.10;1.30;;;;;;;;;;5107880;27;20046;-64
2022/01/15 02:12:25;;;;;;;2.85;1.20;;;;;;;;;;5106608;27;20035;-64
2022/01/15 02:14:51;;;;;;;2.55;1.10;;;;;;;;;;5107515;27;20125;-64
2022/01/15 02:17:19;;;;;;;3.03;1.30;;;;;;;;;;5106089;27;20067;-64
2022/01/15 02:20:11;;;;;;;3.70;1.20;;;;;;;;;;5107700;27;20100;-64
2022/01/15 02:25:21;;;;;;;;;;;;;;;;;;5107980;27;20074;-64
2022/01/15 02:27:47;;;;;;;3.25;1.27;;;;;;;;;;5106157;27;19966;-64
2022/01/15 02:30:14;;;;;;;3.15;1.30;;;;;;;;;;5125805;27;20575;-64
2022/01/15 02:32:40;;;;;;;3.88;1.40;;;;;;;;;;5124220;27;20035;-64
2022/01/15 02:35:06;;;;;;;3.53;1.30;;;;;;;;;;5107746;27;20710;-64
2022/01/15 02:37:32;;;;;;;3.67;1.40;;;;;;;;;;5093409;27;20043;-64
2022/01/15 02:39:58;;;;;;;3.83;1.55;;;;;;;;;;5107567;27;20083;-64
2022/01/15 02:42:28;;;;;;;3.75;1.70;;;;;;;;;;5105580;27;20173;-64
2022/01/15 02:45:00;;;;;;;4.15;1.58;;;;;;;;;;5106424;27;20039;-64
2022/01/15 02:50:10;;;;;;;;;;;;;;;;;;5108181;27;20047;-64
2022/01/15 02:52:36;;;;;;;3.08;1.17;;;;;;;;;;5101912;28;19922;-64
2022/01/15 02:55:03;;;;;;;3.10;1.30;;;;;;;;;;5072186;27;20484;-64
2022/01/15 02:57:29;;;;;;;3.53;1.30;;;;;;;;;;5089821;28;20070;-64
2022/01/15 02:59:55;;;;;;;3.42;1.42;;;;;;;;;;5089488;27;20047;-64
2022/01/15 03:02:21;;;;;;;3.58;1.25;;;;;;;;;;5088520;27;20031;-64
2022/01/15 03:04:48;;;;;;;3.35;1.38;;;;;;;;;;5106420;27;20134;-64
2022/01/15 03:07:14;;;;;;;3.92;1.50;;;;;;;;;;5105762;28;20083;-64
2022/01/15 03:09:41;;;;;;;2.80;1.10;;;;;;;;;;5123943;27;20039;-64
2022/01/15 03:12:07;;;;;;;2.88;1.13;;;;;;;;;;5104362;28;20098;-64
2022/01/15 03:14:33;;;;;;;3.00;1.20;;;;;;;;;;5089858;28;20043;-64
2022/01/15 03:16:59;;;;;;;3.08;1.10;;;;;;;;;;5104804;28;20447;-64
2022/01/15 03:19:25;;;;;;;3.20;1.27;;;;;;;;;;5106031;28;20070;-64
2022/01/15 03:21:51;;;;;;;3.40;1.20;;;;;;;;;;5104693;28;20100;-64
2022/01/15 03:24:17;;;;;;;3.38;1.30;;;;;;;;;;5106722;28;20042;-64
2022/01/15 03:26:43;;;;;;;3.10;1.20;;;;;;;;;;5094988;28;20707;-64
2022/01/15 03:29:09;;;;;;;2.97;1.13;;;;;;;;;;5124680;27;20027;-64
2022/01/15 03:31:35;;;;;;;3.60;1.20;;;;;;;;;;5106311;28;20043;-64
2022/01/15 03:34:01;;;;;;;4.40;1.10;;;;;;;;;;5105760;28;20073;-64
2022/01/15 03:36:27;;;;;;;2.58;1.13;;;;;;;;;;5106217;28;20042;-64
2022/01/15 03:38:53;;;;;;;2.50;1.00;;;;;;;;;;5105050;28;20146;-64
2022/01/15 03:41:19;;;;;;;2.67;0.95;;;;;;;;;;5106010;28;20039;-64
2022/01/15 03:43:45;;;;;;;3.20;0.90;;;;;;;;;;5105349;28;20531;-64
2022/01/15 03:46:11;;;;;;;3.35;1.15;;;;;;;;;;5106075;28;20531;-64
2022/01/15 03:48:37;;;;;;;2.13;1.00;;;;;;;;;;5105203;28;20042;-64
2022/01/15 03:51:03;;;;;;;2.05;0.93;;;;;;;;;;5088793;28;20099;-64
2022/01/15 03:53:29;;;;;;;3.28;1.10;;;;;;;;;;5088980;28;20678;-64
2022/01/15 03:55:55;;;;;;;2.58;1.00;;;;;;;;;;5089499;27;20081;-64
2022/01/15 03:58:21;;;;;;;3.35;1.23;;;;;;;;;;5123260;28;20520;-64
2022/01/15 04:00:48;;;;;;;2.33;0.80;;;;;;;;;;5105759;28;20053;-64
2022/01/15 04:03:14;;;;;;;3.25;1.00;;;;;;;;;;5105101;28;20043;-64
2022/01/15 04:05:40;;;;;;;1.88;0.90;;;;;;;;;;5105414;28;20047;-64
2022/01/15 04:08:07;;;;;;;2.65;0.80;;;;;;;;;;5103446;27;20035;-64
2022/01/15 04:10:33;;;;;;;2.65;0.95;;;;;;;;;;5084465;27;20050;-64
2022/01/15 04:12:59;;;;;;;2.60;1.00;;;;;;;;;;5076888;28;20115;-64
2022/01/15 04:15:25;;;;;;;2.35;0.90;;;;;;;;;;5105656;28;20122;-64
2022/01/15 04:17:52;;;;;;;2.47;0.80;;;;;;;;;;5104808;28;20427;-64
2022/01/15 04:20:21;;;;;;;1.75;0.77;;;;;;;;;;5106978;27;20047;-64
2022/01/15 04:22:48;;;;;;;1.80;0.75;;;;;;;;;;5092295;27;20463;-64
2022/01/15 04:25:14;;;;;;;3.03;1.02;;;;;;;;;;5093437;27;20127;-64
2022/01/15 04:27:40;;;;;;;2.67;0.90;;;;;;;;;;5108422;27;20118;-64
2022/01/15 04:30:07;;;;;;;1.92;0.93;;;;;;;;;;5109454;27;20114;-64
2022/01/15 04:32:33;;;;;;;1.83;0.80;;;;;;;;;;5107286;27;20312;-64
2022/01/15 04:35:00;;;;;;;1.73;0.77;;;;;;;;;;5108468;27;20039;-64
2022/01/15 04:37:35;;;;;;;2.22;0.80;;;;;;;;;;5106770;27;20096;-64
2022/01/15 04:40:01;;;;;;;2.05;0.80;;;;;;;;;;5091414;27;20051;-64
2022/01/15 04:42:29;;;;;;;2.30;0.80;;;;;;;;;;5107171;27;20039;-64
2022/01/15 04:44:55;;;;;;;1.63;0.70;;;;;;;;;;5108461;27;20047;-64
2022/01/15 04:47:21;;;;;;;1.50;0.70;;;;;;;;;;5108485;27;20070;-64
2022/01/15 04:49:47;;;;;;;2.17;0.80;;;;;;;;;;5108773;27;20039;-64
2022/01/15 04:52:14;;;;;;;1.40;0.70;;;;;;;;;;5091167;27;20572;-64
2022/01/15 04:54:40;;;;;;;1.70;0.80;;;;;;;;;;5109072;27;20047;-64
2022/01/15 04:57:06;;;;;;;1.88;0.73;;;;;;;;;;5126171;27;20391;-64
2022/01/15 04:59:32;;;;;;;1.67;0.70;;;;;;;;;;5108997;27;20075;-64
2022/01/15 05:01:58;;;;;;;1.60;0.70;;;;;;;;;;5089790;27;20599;-64
2022/01/15 05:04:24;;;;;;;1.02;0.60;;;;;;;;;;5108833;27;20039;-64
2022/01/15 05:06:50;;;;;;;2.03;0.90;;;;;;;;;;5107062;27;20043;-64
2022/01/15 05:09:16;;;;;;;1.55;0.70;;;;;;;;;;5091999;27;20369;-64
2022/01/15 05:11:47;;;;;;;0.95;0.60;;;;;;;;;;5108108;27;20045;-64
2022/01/15 05:14:14;;;;;;;1.38;0.70;;;;;;;;;;5088686;28;20059;-64
2022/01/15 05:16:40;;;;;;;1.80;0.70;;;;;;;;;;5088279;27;20629;-64
2022/01/15 05:19:07;;;;;;;1.73;0.70;;;;;;;;;;5108692;27;20073;-64
2022/01/15 05:21:33;;;;;;;1.70;0.68;;;;;;;;;;5126316;27;20663;-64
2022/01/15 05:23:59;;;;;;;2.40;0.80;;;;;;;;;;5108161;27;20045;-64
2022/01/15 05:26:25;;;;;;;1.20;0.70;;;;;;;;;;5108768;27;20043;-64
2022/01/15 05:28:51;;;;;;;1.13;0.60;;;;;;;;;;5107209;27;20073;-64
2022/01/15 05:31:17;;;;;;;0.90;0.60;;;;;;;;;;5091228;27;20043;-64
2022/01/15 05:33:43;;;;;;;1.67;0.70;;;;;;;;;;5107027;27;20041;-65
2022/01/15 05:36:10;;;;;;;2.47;0.70;;;;;;;;;;5090932;27;20613;-64
2022/01/15 05:38:36;;;;;;;2.38;0.60;;;;;;;;;;5106870;27;20162;-64
2022/01/15 05:41:02;;;;;;;1.10;0.63;;;;;;;;;;5091481;27;20628;-64
2022/01/15 05:43:28;;;;;;;1.85;0.88;;;;;;;;;;5106961;27;20066;-64
2022/01/15 05:45:54;;;;;;;1.83;0.73;;;;;;;;;;5091020;27;20625;-64
2022/01/15 05:48:20;;;;;;;2.03;0.63;;;;;;;;;;5106484;27;20042;-64
2022/01/15 05:50:46;;;;;;;1.60;0.60;;;;;;;;;;5107600;27;20046;-65
2022/01/15 05:53:13;;;;;;;1.17;0.65;;;;;;;;;;5106644;27;20047;-65
2022/01/15 05:55:39;;;;;;;1.35;0.60;;;;;;;;;;5107743;27;20428;-65
2022/01/15 05:58:07;;;;;;;0.75;0.47;;;;;;;;;;5107401;27;20046;-65
2022/01/15 06:00:33;;;;;;;1.70;0.63;;;;;;;;;;5107227;27;20050;-65
2022/01/15 06:02:59;;;;;;;2.35;0.80;;;;;;;;;;5106439;27;20078;-65
2022/01/15 06:05:25;;;;;;;1.08;0.70;;;;;;;;;;5125825;27;20750;-65
2022/01/15 06:07:51;;;;;;;1.48;0.70;;;;;;;;;;5090112;27;20183;-65
2022/01/15 06:10:17;;;;;;;1.75;0.70;;;;;;;;;;5107906;27;20157;-65
2022/01/15 06:12:44;;;;;;;1.48;0.68;;;;;;;;;;5124365;27;20031;-65
2022/01/15 06:15:11;;;;;;;1.33;0.70;;;;;;;;;;5107451;27;20111;-65
2022/01/15 06:17:37;;;;;;;0.85;0.50;;;;;;;;;;5088361;27;20023;-65
2022/01/15 06:20:03;;;;;;;1.90;0.80;;;;;;;;;;5107500;27;20840;-65
2022/01/15 06:22:29;;;;;;;1.83;0.77;;;;;;;;;;5105838;27;20039;-65
2022/01/15 06:24:56;;;;;;;1.70;0.70;;;;;;;;;;5107657;27;20092;-65
2022/01/15 06:27:22;;;;;;;1.35;0.70;;;;;;;;;;5106227;27;20476;-65
2022/01/15 06:29:48;;;;;;;1.50;0.70;;;;;;;;;;5106920;27;20115;-65
2022/01/15 06:32:14;;;;;;;1.42;0.52;;;;;;;;;;5105915;27;20412;-65
2022/01/15 06:34:40;;;;;;;1.17;0.60;;;;;;;;;;5107324;27;20047;-65
2022/01/15 06:37:07;;;;;;;1.75;0.80;;;;;;;;;;5106590;27;20039;-65
2022/01/15 06:39:34;;;;;;;3.13;0.80;;;;;;;;;;5125380;27;20414;-65
2022/01/15 06:42:00;;;;;;;1.25;0.65;;;;;;;;;;5106057;27;20058;-66
2022/01/15 06:44:26;;;;;;;2.45;0.68;;;;;;;;;;5106173;27;20084;-65
2022/01/15 06:46:54;;;;;;;2.38;0.80;;;;;;;;;;5103852;27;20088;-66
2022/01/15 06:49:20;;;;;;;1.67;0.60;;;;;;;;;;5106708;27;20043;-65
2022/01/15 06:51:46;;;;;;;1.10;0.55;;;;;;;;;;5102474;27;20494;-65
2022/01/15 06:54:12;;;;;;;3.28;0.68;;;;;;;;;;5070649;27;20056;-65
2022/01/15 06:56:38;;;;;;;1.52;0.68;;;;;;;;;;5065897;28;20376;-65
2022/01/15 06:59:04;;;;;;;1.52;0.60;;;;;;;;;;5105834;28;20039;-65
2022/01/15 07:01:30;;;;;;;1.38;0.70;;;;;;;;;;5105933;27;20047;-66
2022/01/15 07:03:56;;;;;;;1.50;0.60;;;;;;;;;;5105491;27;20607;-66
2022/01/15 07:06:23;;;;;;;1.95;0.70;;;;;;;;;;5124764;27;20110;-65
2022/01/15 07:08:49;;;;;;;1.92;0.70;;;;;;;;;;5097266;27;20063;-65
2022/01/15 07:11:15;;;;;;;1.48;0.73;;;;;;;;;;5104521;27;20043;-65
2022/01/15 07:13:41;;;;;;;1.88;0.70;;;;;;;;;;5088090;28;20051;-66
2022/01/15 07:16:07;;;;;;;2.13;0.85;;;;;;;;;;5096941;28;20187;-65
2022/01/15 07:18:33;;;;;;;2.10;0.80;;;;;;;;;;5100707;28;20628;-66
2022/01/15 07:20:59;;;;;;;1.50;0.68;;;;;;;;;;5102583;28;20043;-66
2022/01/15 07:23:25;;;;;;;1.95;0.77;;;;;;;;;;5096888;28;20134;-66
2022/01/15 07:25:51;;;;;;;2.10;0.90;;;;;;;;;;5087550;28;20123;-65
2022/01/15 07:28:18;;;;;;;1.83;0.82;;;;;;;;;;5095697;28;20612;-65
2022/01/15 07:30:45;;;;;;;2.22;0.82;;;;;;;;;;5098068;28;20040;-65
2022/01/15 07:33:12;;;;;;;2.05;0.90;;;;;;;;;;5094202;28;20082;-65
2022/01/15 07:35:38;;;;;;;2.30;0.90;;;;;;;;;;5098512;28;20043;-65
2022/01/15 07:38:04;;;;;;;1.58;0.70;;;;;;;;;;5079228;28;20040;-65
2022/01/15 07:40:30;;;;;;;2.83;0.90;;;;;;;;;;5096711;28;20420;-65
2022/01/15 07:42:56;;;;;;;2.10;0.88;;;;;;;;;;5071297;28;20046;-65
2022/01/15 07:45:22;;;;;;;2.85;1.00;;;;;;;;;;5101994;28;20043;-65
2022/01/15 07:47:48;;;;;;;2.50;1.00;;;;;;;;;;5071761;28;20632;-65
2022/01/15 07:50:17;;;;;;;3.35;1.20;;;;;;;;;;5084858;27;20126;-66
2022/01/15 07:52:43;;;;;;;2.50;0.90;;;;;;;;;;5089748;27;20043;-65
2022/01/15 07:55:09;;;;;;;3.80;0.90;;;;;;;;;;5098386;27;20574;-65
2022/01/15 07:57:36;;;;;;;3.22;1.00;;;;;;;;;;5126847;27;20029;-65
2022/01/15 08:00:02;;;;;;;3.38;0.98;;;;;;;;;;5109644;27;20582;-66
2022/01/15 08:02:28;;;;;;;4.00;1.10;;;;;;;;;;5108342;27;20043;-64
2022/01/15 08:04:54;;;;;;;4.85;1.10;;;;;;;;;;5096041;28;20470;-66
2022/01/15 08:07:20;;;;;;;4.43;1.05;;;;;;;;;;5093167;27;20051;-65
2022/01/15 08:09:46;;;;;;;3.40;1.10;;;;;;;;;;5074434;28;20031;-66
2022/01/15 08:12:12;;;;;;;2.78;0.90;;;;;;;;;;5093183;27;20035;-65
2022/01/15 08:14:38;;;;;;;3.38;1.00;;;;;;;;;;5092803;27;20126;-65
2022/01/15 08:17:04;;;;;;;2.15;0.90;;;;;;;;;;5107954;27;20040;-65
2022/01/15 08:19:30;;;;;;;2.40;0.90;;;;;;;;;;5092328;27;20527;-65
2022/01/15 08:21:57;;;;;;;4.47;1.00;;;;;;;;;;5078434;27;21820;-64
2022/01/15 08:24:23;;;;;;;3.38;1.00;;;;;;;;;;5086916;28;20121;-65
2022/01/15 08:26:51;;;;;;;4.22;1.10;;;;;;;;;;5073169;27;20052;-64
2022/01/15 08:29:17;;;;;;;1.77;0.73;;;;;;;;;;5109135;27;20068;-66
2022/01/15 08:31:43;;;;;;;1.85;0.70;;;;;;;;;;5109887;27;20039;-66
2022/01/15 08:34:10;;;;;;;2.22;0.80;;;;;;;;;;5108971;27;20062;-66
2022/01/15 08:36:36;;;;;;;2.47;0.90;;;;;;;;;;5108332;27;20035;-65
2022/01/15 08:39:04;;;;;;;2.63;0.90;;;;;;;;;;5091808;27;20050;-65
2022/01/15 08:41:30;;;;;;;2.70;0.80;;;;;;;;;;5127506;27;20047;-65
2022/01/15 08:43:57;;;;;;;2.42;1.00;;;;;;;;;;5091850;27;20070;-65
2022/01/15 08:46:23;;;;;;;2.33;0.70;;;;;;;;;;5108318;27;20109;-65
2022/01/15 08:48:49;;;;;;;3.65;0.88;;;;;;;;;;5106531;27;20042;-65
2022/01/15 08:51:15;;;;;;;2.88;0.80;;;;;;;;;;5090955;27;20047;-65
2022/01/15 08:53:41;;;;;;;2.00;0.80;;;;;;;;;;5091759;27;20063;-64
2022/01/15 08:56:07;;;;;;;3.92;0.85;;;;;;;;;;5109248;27;20112;-65
2022/01/15 08:58:34;;;;;;;4.18;0.90;;;;;;;;;;5108572;27;20624;-64
2022/01/15 09:01:00;;;;;;;4.43;0.73;;;;;;;;;;5108807;27;20743;-65
2022/01/15 09:03:26;;;;;;;3.47;0.90;;;;;;;;;;5107981;27;20103;-65
2022/01/15 09:05:52;;;;;;;4.10;0.95;;;;;;;;;;5126757;27;20479;-65
2022/01/15 09:08:24;;;;;;;2.63;0.85;;;;;;;;;;5081611;28;20032;-65
2022/01/15 09:10:50;;;;;;;2.72;0.80;;;;;;;;;;5081414;27;20082;-65
2022/01/15 09:13:16;;;;;;;2.53;0.70;;;;;;;;;;5124414;27;20047;-65
2022/01/15 09:15:42;;;;;;;3.00;1.00;;;;;;;;;;5124940;27;20039;-65
2022/01/15 09:18:08;;;;;;;2.65;0.80;;;;;;;;;;5124411;27;20053;-65
2022/01/15 09:20:34;;;;;;;3.30;0.88;;;;;;;;;;5101985;27;20043;-64
2022/01/15 09:23:00;;;;;;;2.45;0.80;;;;;;;;;;5103702;27;20553;-65
2022/01/15 09:25:27;;;;;;;1.63;0.70;;;;;;;;;;5105984;27;20619;-65
2022/01/15 09:30:38;;;;;;;2.28;0.75;;;;;;;;;;5107423;27;20498;-64
2022/01/15 09:33:04;;;;;;;2.05;0.70;;;;;;;;;;5090313;27;20653;-65
2022/01/15 09:35:31;;;;;;;2.33;0.70;;;;;;;;;;5126497;27;20047;-67
2022/01/15 09:37:58;;;;;;;1.95;0.82;;;;;;;;;;5106929;27;20038;-65
2022/01/15 09:40:25;;;;;;;2.65;1.00;;;;;;;;;;5122476;27;20067;-65
2022/01/15 09:42:52;;;;;;;1.92;0.70;;;;;;;;;;5104488;27;20637;-65
2022/01/15 09:45:19;;;;;;;2.78;0.85;;;;;;;;;;5091540;27;20606;-64
2022/01/15 09:47:45;;;;;;;3.08;1.00;;;;;;;;;;5106876;27;20634;-65
2022/01/15 09:50:13;;;;;;;2.80;0.93;;;;;;;;;;5098232;27;20092;-65
2022/01/15 09:52:39;;;;;;;2.13;0.80;;;;;;;;;;5100357;28;20035;-65
2022/01/15 09:55:09;;;;;;;3.13;1.10;;;;;;;;;;5092289;27;21790;-64
2022/01/15 09:57:35;;;;;;;3.70;1.20;;;;;;;;;;5070752;27;20043;-64
2022/01/15 10:00:03;;;;;;;3.72;1.20;;;;;;;;;;5095272;27;20043;-65
2022/01/15 10:02:29;;;;;;;2.00;0.80;;;;;;;;;;5117898;27;20042;-66
2022/01/15 10:04:55;;;;;;;3.90;1.27;;;;;;;;;;5086679;28;20046;-66
2022/01/15 10:07:27;;;;;;;5.22;1.35;;;;;;;;;;5091540;27;20031;-67
2022/01/15 10:09:53;;;;;;;4.50;1.27;;;;;;;;;;5086878;27;20069;-67
2022/01/15 10:12:31;;;;;;;3.70;1.30;;;;;;;;;;5104058;27;20043;-66
2022/01/15 10:15:05;;;;;;;6.07;2.00;;;;;;;;;;5107032;27;20122;-66
2022/01/15 10:17:35;;;;;;;4.03;1.70;;;;;;;;;;5105218;28;20039;-66
2022/01/15 10:20:03;;;;;;;4.70;1.73;;;;;;;;;;5106836;27;20055;-66
2022/01/15 10:22:32;;;;;;;4.43;1.52;;;;;;;;;;5105021;27;20035;-66
2022/01/15 10:25:00;;;;;;;4.40;1.45;;;;;;;;;;5090689;27;20035;-66
2022/01/15 10:27:28;;;;;;;3.30;1.40;;;;;;;;;;5105877;27;20052;-66
2022/01/15 10:30:06;;;;;;;3.88;1.65;;;;;;;;;;5097232;28;20646;-67
2022/01/15 10:32:34;;;;;;;4.63;1.67;;;;;;;;;;5074961;27;20035;-66
2022/01/15 10:35:00;;;;;;;5.72;1.70;;;;;;;;;;5092192;28;20097;-66
2022/01/15 10:37:34;;;;;;;6.50;1.60;;;;;;;;;;5099985;27;20650;-66
2022/01/15 10:40:01;;;;;;;;;;;;;;;;;;5103666;28;20066;-67
2022/01/15 10:42:27;;;;;;;4.47;1.70;;;;;;;;;;5126271;27;19919;-67
2022/01/15 10:44:54;;;;;;;5.20;1.90;;;;;;;;;;5091229;28;20493;-67
2022/01/15 10:47:22;;;;;;;3.95;1.50;;;;;;;;;;5074637;27;20031;-66
2022/01/15 10:49:48;;;;;;;4.38;1.60;;;;;;;;;;5107251;27;20591;-66
2022/01/15 10:52:18;;;;;;;4.40;1.90;;;;;;;;;;5089021;27;20425;-66
2022/01/15 10:54:52;;;;;;;7.72;2.20;;;;;;;;;;5107101;27;20415;-66
2022/01/15 10:57:20;;;;;;;4.78;1.90;;;;;;;;;;5089832;27;20088;-67
2022/01/15 11:00:15;;;;;;;6.28;1.75;;;;;;;;;;5085089;28;20723;-66
2022/01/15 11:02:42;;;;;;;4.10;1.88;;;;;;;;;;5076933;28;20047;-67
2022/01/15 11:05:28;;;;;;;5.03;2.00;;;;;;;;;;5090097;27;20122;-67
2022/01/15 11:08:02;;;;;;;6.63;2.40;;;;;;;;;;5105820;27;20046;-67
2022/01/15 11:10:29;;;;;;;5.32;2.38;;;;;;;;;;5089691;28;20043;-67
2022/01/15 11:12:55;;;;;;;5.20;2.17;;;;;;;;;;5095740;28;20605;-67
2022/01/15 11:15:24;;;;;;;7.78;2.20;;;;;;;;;;5121147;27;20043;-67
2022/01/15 11:17:50;;;;;;;4.88;2.00;;;;;;;;;;5113657;27;20054;-66
2022/01/15 11:20:16;;;;;;;5.13;2.10;;;;;;;;;;5090071;28;20602;-67
2022/01/15 11:22:43;;;;;;;5.40;2.30;;;;;;;;;;5104797;28;20043;-67
2022/01/15 11:25:09;;;;;;;5.60;2.03;;;;;;;;;;5106868;28;20412;-67
2022/01/15 11:27:35;;;;;;;5.60;2.40;;;;;;;;;;5105999;28;20039;-67
2022/01/15 11:30:02;;;;;;;5.97;2.53;;;;;;;;;;5091694;27;20039;-67
2022/01/15 11:32:28;;;;;;;5.60;2.00;;;;;;;;;;5110109;27;20036;-69
2022/01/15 11:35:00;;;;;;;5.53;2.17;;;;;;;;;;5114053;27;20115;-66
2022/01/15 11:37:26;;;;;;;7.38;1.85;;;;;;;;;;5113159;27;20069;-66
2022/01/15 11:39:55;;;;;;;5.15;2.00;;;;;;;;;;5115067;27;20046;-66
2022/01/15 11:42:25;;;;;;;6.95;2.22;;;;;;;;;;5096464;27;20126;-66
2022/01/15 11:44:51;;;;;;;4.32;1.70;;;;;;;;;;5112172;27;20039;-66
2022/01/15 11:47:21;;;;;;;4.13;1.80;;;;;;;;;;5092495;27;20035;-66
2022/01/15 11:49:49;;;;;;;4.68;2.05;;;;;;;;;;5110479;27;20054;-66
2022/01/15 11:52:17;;;;;;;4.93;1.90;;;;;;;;;;5092605;27;20535;-66
2022/01/15 11:54:49;;;;;;;4.20;1.67;;;;;;;;;;5093467;27;20047;-66
2022/01/15 11:57:21;;;;;;;4.25;1.65;;;;;;;;;;5093045;27;20115;-66
2022/01/15 11:59:53;;;;;;;5.88;2.20;;;;;;;;;;5110515;27;20517;-66
2022/01/15 12:02:36;;;;;;;4.70;1.58;;;;;;;;;;5127595;27;20079;-66
2022/01/15 12:05:17;;;;;;;5.65;1.90;;;;;;;;;;5110406;27;20684;-66
2022/01/15 12:07:44;;;;;;;4.70;1.80;;;;;;;;;;5108414;27;20046;-66
2022/01/15 12:10:14;;;;;;;4.93;1.98;;;;;;;;;;5110424;27;20565;-66
2022/01/15 12:12:45;;;;;;;4.55;1.73;;;;;;;;;;5109312;27;20618;-66
2022/01/15 12:15:17;;;;;;;4.28;1.90;;;;;;;;;;5110030;27;20190;-66
2022/01/15 12:17:51;;;;;;;3.97;1.70;;;;;;;;;;5108274;27;20630;-67
2022/01/15 12:20:17;;;;;;;;;;;;;;;;;;5110531;27;20051;-66
2022/01/15 12:22:47;;;;;;;3.67;1.65;;;;;;;;;;5108338;27;19971;-66
2022/01/15 12:25:16;;;;;;;4.00;1.65;;;;;;;;;;5094052;27;20215;-67
2022/01/15 12:27:42;;;;;;;4.30;1.55;;;;;;;;;;5091697;27;20039;-67
2022/01/15 12:30:14;;;;;;;3.53;1.60;;;;;;;;;;5109490;27;20042;-67
2022/01/15 12:32:42;;;;;;;4.57;1.73;;;;;;;;;;5107859;27;20046;-67
2022/01/15 12:35:16;;;;;;;3.75;1.65;;;;;;;;;;5109460;27;20078;-67
2022/01/15 12:37:59;;;;;;;3.97;1.90;;;;;;;;;;5091612;27;20123;-66
2022/01/15 12:40:29;;;;;;;5.53;2.15;;;;;;;;;;5109397;28;20040;-67
2022/01/15 12:42:56;;;;;;;3.55;1.63;;;;;;;;;;5107965;27;20047;-66
2022/01/15 12:45:22;;;;;;;5.32;1.85;;;;;;;;;;5127361;27;20039;-67
2022/01/15 12:47:48;;;;;;;4.28;1.88;;;;;;;;;;5107283;27;20057;-67
2022/01/15 12:50:14;;;;;;;4.05;1.70;;;;;;;;;;5091957;27;20031;-69
2022/01/15 12:52:40;;;;;;;4.15;1.88;;;;;;;;;;5107041;27;20042;-67
2022/01/15 12:55:07;;;;;;;4.07;1.73;;;;;;;;;;5091906;27;20088;-67
2022/01/15 12:57:37;;;;;;;5.05;2.10;;;;;;;;;;5107313;27;20035;-67
2022/01/15 13:00:04;;;;;;;4.07;1.75;;;;;;;;;;5091484;27;20646;-67
2022/01/15 13:02:30;;;;;;;4.10;1.80;;;;;;;;;;5090790;27;20039;-67
2022/01/15 13:04:56;;;;;;;3.58;1.63;;;;;;;;;;5091931;27;20027;-67
2022/01/15 13:07:22;;;;;;;4.72;2.08;;;;;;;;;;5108036;27;20175;-67
2022/01/15 13:09:48;;;;;;;4.35;2.10;;;;;;;;;;5108947;27;20122;-67
2022/01/15 13:12:14;;;;;;;4.72;2.10;;;;;;;;;;5107309;27;20827;-67
2022/01/15 13:14:41;;;;;;;4.38;1.90;;;;;;;;;;5108935;27;20511;-67
2022/01/15 13:17:21;;;;;;;4.70;2.03;;;;;;;;;;5107895;27;20126;-67
2022/01/15 13:19:47;;;;;;;4.82;1.75;;;;;;;;;;5108946;27;20714;-67
2022/01/15 13:22:13;;;;;;;4.70;2.00;;;;;;;;;;5107235;27;20058;-67
2022/01/15 13:24:39;;;;;;;4.47;2.20;;;;;;;;;;5091802;27;20073;-67
2022/01/15 13:27:06;;;;;;;4.20;2.00;;;;;;;;;;5107017;27;20063;-67
2022/01/15 13:29:39;;;;;;;5.43;2.47;;;;;;;;;;5108211;27;20039;-67
2022/01/15 13:32:07;;;;;;;4.28;2.00;;;;;;;;;;5106891;27;20508;-67
2022/01/15 13:34:35;;;;;;;5.28;2.50;;;;;;;;;;5108161;27;20047;-67
2022/01/15 13:37:09;;;;;;;5.10;2.20;;;;;;;;;;5107052;27;20047;-67
2022/01/15 13:39:36;;;;;;;5.03;2.35;;;;;;;;;;5092326;27;20126;-67
2022/01/15 13:42:02;;;;;;;5.30;2.50;;;;;;;;;;5124941;27;20083;-67
2022/01/15 13:44:32;;;;;;;4.63;2.28;;;;;;;;;;5108211;27;20114;-67
2022/01/15 13:47:06;;;;;;;4.97;2.17;;;;;;;;;;5106141;27;20039;-67
2022/01/15 13:53:04;;;;;;;4.78;2.20;;;;;;;;;;5108427;27;20125;-67
2022/01/15 13:55:16;;;;;;;;;;;;;;;;;;5108692;27;20134;-67
2022/01/15 13:57:42;;;;;;;5.03;2.38;;;;;;;;;;5124690;27;20010;-67
2022/01/15 14:00:11;;;;;;;4.97;2.40;;;;;;;;;;5089977;27;20043;-67
2022/01/15 14:02:37;;;;;;;4.70;2.33;;;;;;;;;;5124825;27;20042;-67
2022/01/15 14:05:12;;;;;;;4.57;2.33;;;;;;;;;;5108230;27;20515;-67
2022/01/15 14:07:38;;;;;;;4.45;2.25;;;;;;;;;;5124348;27;20027;-67
2022/01/15 14:10:09;;;;;;;5.22;2.72;;;;;;;;;;5108047;27;20706;-67
2022/01/15 14:12:35;;;;;;;6.55;2.70;;;;;;;;;;5089985;27;20039;-67
2022/01/15 14:15:06;;;;;;;4.93;2.30;;;;;;;;;;5107840;27;20047;-67
2022/01/15 14:17:34;;;;;;;5.32;2.67;;;;;;;;;;5106276;27;20035;-66
2022/01/15 14:22:30;;;;;;;5.10;2.53;;;;;;;;;;5105959;27;20122;-66
2022/01/15 14:25:10;;;;;;;4.93;2.17;;;;;;;;;;5125415;27;20042;-66
2022/01/15 14:27:36;;;;;;;6.55;2.97;;;;;;;;;;5106381;27;20109;-67
2022/01/15 14:30:03;;;;;;;5.20;2.75;;;;;;;;;;5107326;27;20035;-67
2022/01/15 14:32:29;;;;;;;5.40;3.00;;;;;;;;;;5088976;27;20047;-67
2022/01/15 14:34:57;;;;;;;5.28;2.22;;;;;;;;;;5107406;27;20094;-67
2022/01/15 14:37:23;;;;;;;5.53;2.72;;;;;;;;;;5106007;27;20039;-67
2022/01/15 14:39:49;;;;;;;5.35;2.75;;;;;;;;;;5091393;27;20046;-67
2022/01/15 14:42:15;;;;;;;5.32;2.53;;;;;;;;;;5101599;28;20050;-67
2022/01/15 14:44:41;;;;;;;5.18;2.63;;;;;;;;;;5086241;28;20031;-67
2022/01/15 14:47:07;;;;;;;4.93;2.53;;;;;;;;;;5089455;27;20035;-67
2022/01/15 14:49:34;;;;;;;5.15;2.58;;;;;;;;;;5106989;27;20047;-67
2022/01/15 14:52:00;;;;;;;4.90;2.20;;;;;;;;;;5105236;27;20088;-67
2022/01/15 14:54:26;;;;;;;4.72;2.10;;;;;;;;;;5089884;27;20631;-67
2022/01/15 14:56:52;;;;;;;4.93;2.58;;;;;;;;;;5105565;27;20173;-67
2022/01/15 14:59:17;;;;;;;4.45;2.08;;;;;;;;;;5106536;27;20039;-67
2022/01/15 15:01:44;;;;;;;4.70;2.20;;;;;;;;;;5105217;27;20062;-67
2022/01/15 15:04:10;;;;;;;4.95;2.47;;;;;;;;;;5106577;28;20047;-67
2022/01/15 15:06:39;;;;;;;4.75;2.28;;;;;;;;;;5106462;27;20035;-68
2022/01/15 15:09:06;;;;;;;5.78;2.53;;;;;;;;;;5089519;28;20043;-65
2022/01/15 15:11:32;;;;;;;6.18;2.97;;;;;;;;;;5106025;27;20104;-66
2022/01/15 15:13:58;;;;;;;5.25;2.45;;;;;;;;;;5101722;27;20587;-65
2022/01/15 15:16:24;;;;;;;5.70;2.13;;;;;;;;;;5096255;27;20407;-65